sensor_id;sensor_type;location;lat;lon;timestamp;pressure;altitude;pressure_sealevel;temperature;humidity
21129;BME280;10722;51.910;8.352;2023-01-30T00:00:09;100939.44;;;2.07;100.00
21129;BME280;10722;51.910;8.352;2023-01-30T00:02:55;100947.97;;;2.07;100.00
21129;BME280;10722;51.910;8.352;2023-01-30T00:05:40;100940.47;;;2.10;100.00
21129;BME280;10722;51.910;8.352;2023-01-30T00:08:25;100958.50;;;2.13;100.00
21129;BME280;10722;51.910;8.352;2023-01-30T00:11:11;100933.25;;;2.18;100.00
21129;BME280;10722;51.910;8.352;2023-01-30T00:13:57;100958.13;;;2.22;100.00
21129;BME280;10722;51.910;8.352;2023-01-30T00:16:43;100940.91;;;2.18;100.00
21129;BME280;10722;51.910;8.352;2023-01-30T00:19:28;100946.88;;;2.18;100.00
21129;BME280;10722;51.910;8.352;2023-01-30T00:22:12;100953.03;;;2.22;100.00
21129;BME280;10722;51.910;8.352;2023-01-30T00:24:57;100939.53;;;2.24;100.00
21129;BME280;10722;51.910;8.352;2023-01-30T00:27:43;100945.28;;;2.20;100.00
21129;BME280;10722;51.910;8.352;2023-01-30T00:30:28;100939.47;;;2.23;100.00
21129;BME280;10722;51.910;8.352;2023-01-30T00:33:13;100926.78;;;2.24;100.00
21129;BME280;10722;51.910;8.352;2023-01-30T00:36:00;100914.03;;;2.24;100.00
21129;BME280;10722;51.910;8.352;2023-01-30T00:38:45;100895.38;;;2.26;100.00
21129;BME280;10722;51.910;8.352;2023-01-30T00:41:30;100898.09;;;2.29;100.00
21129;BME280;10722;51.910;8.352;2023-01-30T00:44:15;100909.06;;;2.28;100.00
21129;BME280;10722;51.910;8.352;2023-01-30T00:47:00;100907.44;;;2.28;100.00
21129;BME280;10722;51.910;8.352;2023-01-30T00:49:45;100890.66;;;2.33;100.00
21129;BME280;10722;51.910;8.352;2023-01-30T00:52:31;100872.38;;;2.42;100.00
21129;BME280;10722;51.910;8.352;2023-01-30T00:55:16;100864.50;;;2.37;100.00
21129;BME280;10722;51.910;8.352;2023-01-30T00:58:02;100856.13;;;2.40;100.00
21129;BME280;10722;51.910;8.352;2023-01-30T01:00:48;100858.84;;;2.43;100.00
21129;BME280;10722;51.910;8.352;2023-01-30T01:03:33;100848.53;;;2.41;100.00
21129;BME280;10722;51.910;8.352;2023-01-30T01:06:18;100846.28;;;2.47;100.00
21129;BME280;10722;51.910;8.352;2023-01-30T01:09:05;100841.13;;;2.46;100.00
21129;BME280;10722;51.910;8.352;2023-01-30T01:11:51;100838.72;;;2.49;100.00
21129;BME280;10722;51.910;8.352;2023-01-30T01:14:36;100833.78;;;2.52;100.00
21129;BME280;10722;51.910;8.352;2023-01-30T01:17:22;100816.00;;;2.54;100.00
21129;BME280;10722;51.910;8.352;2023-01-30T01:20:08;100818.13;;;2.62;100.00
21129;BME280;10722;51.910;8.352;2023-01-30T01:22:54;100805.25;;;2.61;100.00
21129;BME280;10722;51.910;8.352;2023-01-30T01:25:40;100803.72;;;2.64;100.00
21129;BME280;10722;51.910;8.352;2023-01-30T01:28:25;100811.53;;;2.67;100.00
21129;BME280;10722;51.910;8.352;2023-01-30T01:31:12;100787.84;;;2.70;100.00
21129;BME280;10722;51.910;8.352;2023-01-30T01:33:58;100800.75;;;2.73;100.00
21129;BME280;10722;51.910;8.352;2023-01-30T01:36:43;100789.91;;;2.77;100.00
21129;BME280;10722;51.910;8.352;2023-01-30T01:39:43;100780.25;;;2.72;100.00
21129;BME280;10722;51.910;8.352;2023-01-30T01:42:33;100776.13;;;2.74;100.00
21129;BME280;10722;51.910;8.352;2023-01-30T01:45:22;100760.84;;;2.75;100.00
21129;BME280;10722;51.910;8.352;2023-01-30T01:48:22;100759.81;;;2.72;100.00
21129;BME280;10722;51.910;8.352;2023-01-30T01:51:16;100752.41;;;2.76;100.00
21129;BME280;10722;51.910;8.352;2023-01-30T01:54:25;100766.19;;;2.80;100.00
21129;BME280;10722;51.910;8.352;2023-01-30T01:57:26;100763.84;;;2.84;100.00
21129;BME280;10722;51.910;8.352;2023-01-30T02:00:17;100745.97;;;2.84;100.00
21129;BME280;10722;51.910;8.352;2023-01-30T02:03:14;100733.34;;;2.87;100.00
21129;BME280;10722;51.910;8.352;2023-01-30T02:06:02;100727.44;;;2.88;100.00
21129;BME280;10722;51.910;8.352;2023-01-30T02:08:54;100743.06;;;2.95;100.00
21129;BME280;10722;51.910;8.352;2023-01-30T02:11:46;100754.63;;;3.04;100.00
21129;BME280;10722;51.910;8.352;2023-01-30T02:14:34;100730.84;;;3.07;100.00
21129;BME280;10722;51.910;8.352;2023-01-30T02:17:21;100715.69;;;3.10;100.00
21129;BME280;10722;51.910;8.352;2023-01-30T02:38:47;100673.63;;;3.21;100.00
21129;BME280;10722;51.910;8.352;2023-01-30T02:45:06;100678.13;;;3.27;100.00
21129;BME280;10722;51.910;8.352;2023-01-30T02:48:00;100662.13;;;3.31;100.00
21129;BME280;10722;51.910;8.352;2023-01-30T02:50:54;100657.09;;;3.32;100.00
21129;BME280;10722;51.910;8.352;2023-01-30T02:53:39;100632.44;;;3.34;100.00
21129;BME280;10722;51.910;8.352;2023-01-30T02:56:24;100646.25;;;3.38;100.00
21129;BME280;10722;51.910;8.352;2023-01-30T02:59:10;100634.25;;;3.37;100.00
21129;BME280;10722;51.910;8.352;2023-01-30T03:05:15;100616.69;;;3.45;100.00
21129;BME280;10722;51.910;8.352;2023-01-30T03:11:07;100611.72;;;3.48;100.00
21129;BME280;10722;51.910;8.352;2023-01-30T03:16:58;100629.97;;;3.55;100.00
21129;BME280;10722;51.910;8.352;2023-01-30T03:19:46;100599.41;;;3.58;100.00
21129;BME280;10722;51.910;8.352;2023-01-30T03:22:31;100631.84;;;3.59;100.00
21129;BME280;10722;51.910;8.352;2023-01-30T03:25:20;100614.63;;;3.55;100.00
21129;BME280;10722;51.910;8.352;2023-01-30T03:28:06;100623.09;;;3.54;100.00
21129;BME280;10722;51.910;8.352;2023-01-30T03:30:52;100617.22;;;3.57;100.00
21129;BME280;10722;51.910;8.352;2023-01-30T03:33:37;100614.75;;;3.58;100.00
21129;BME280;10722;51.910;8.352;2023-01-30T03:36:23;100599.41;;;3.58;100.00
21129;BME280;10722;51.910;8.352;2023-01-30T03:39:08;100593.28;;;3.55;100.00
21129;BME280;10722;51.910;8.352;2023-01-30T03:41:53;100578.81;;;3.55;100.00
21129;BME280;10722;51.910;8.352;2023-01-30T03:44:39;100585.53;;;3.53;100.00
21129;BME280;10722;51.910;8.352;2023-01-30T03:47:24;100572.75;;;3.53;100.00
21129;BME280;10722;51.910;8.352;2023-01-30T03:50:09;100569.38;;;3.54;100.00
21129;BME280;10722;51.910;8.352;2023-01-30T03:52:54;100558.34;;;3.55;100.00
21129;BME280;10722;51.910;8.352;2023-01-30T03:55:39;100554.91;;;3.55;100.00
21129;BME280;10722;51.910;8.352;2023-01-30T03:58:25;100570.56;;;3.63;100.00
21129;BME280;10722;51.910;8.352;2023-01-30T04:01:10;100562.03;;;3.62;100.00
21129;BME280;10722;51.910;8.352;2023-01-30T04:03:55;100561.16;;;3.62;100.00
21129;BME280;10722;51.910;8.352;2023-01-30T04:06:40;100544.13;;;3.62;100.00
21129;BME280;10722;51.910;8.352;2023-01-30T04:09:26;100553.53;;;3.63;100.00
21129;BME280;10722;51.910;8.352;2023-01-30T04:12:12;100543.47;;;3.66;100.00
21129;BME280;10722;51.910;8.352;2023-01-30T04:14:57;100539.13;;;3.65;100.00
21129;BME280;10722;51.910;8.352;2023-01-30T04:17:43;100541.78;;;3.67;100.00
21129;BME280;10722;51.910;8.352;2023-01-30T04:20:28;100530.84;;;3.71;100.00
21129;BME280;10722;51.910;8.352;2023-01-30T04:23:15;100543.75;;;3.74;100.00
21129;BME280;10722;51.910;8.352;2023-01-30T04:26:00;100535.22;;;3.73;100.00
21129;BME280;10722;51.910;8.352;2023-01-30T04:28:45;100536.09;;;3.74;100.00
21129;BME280;10722;51.910;8.352;2023-01-30T04:31:30;100531.16;;;3.78;100.00
21129;BME280;10722;51.910;8.352;2023-01-30T04:34:16;100524.38;;;3.79;100.00
21129;BME280;10722;51.910;8.352;2023-01-30T04:37:01;100546.66;;;3.81;100.00
21129;BME280;10722;51.910;8.352;2023-01-30T04:39:46;100528.94;;;3.86;100.00
21129;BME280;10722;51.910;8.352;2023-01-30T04:42:32;100539.31;;;3.89;100.00
21129;BME280;10722;51.910;8.352;2023-01-30T04:45:17;100542.94;;;3.94;100.00
21129;BME280;10722;51.910;8.352;2023-01-30T04:48:03;100531.03;;;3.96;100.00
21129;BME280;10722;51.910;8.352;2023-01-30T04:50:52;100528.56;;;3.98;100.00
21129;BME280;10722;51.910;8.352;2023-01-30T04:53:38;100530.31;;;3.99;100.00
21129;BME280;10722;51.910;8.352;2023-01-30T04:56:23;100539.91;;;4.04;100.00
21129;BME280;10722;51.910;8.352;2023-01-30T04:59:18;100518.50;;;4.02;100.00
21129;BME280;10722;51.910;8.352;2023-01-30T05:02:03;100507.56;;;4.07;100.00
21129;BME280;10722;51.910;8.352;2023-01-30T05:04:48;100506.09;;;4.12;100.00
21129;BME280;10722;51.910;8.352;2023-01-30T05:07:33;100505.25;;;4.13;100.00
21129;BME280;10722;51.910;8.352;2023-01-30T05:10:19;100506.09;;;4.12;100.00
21129;BME280;10722;51.910;8.352;2023-01-30T05:13:05;100502.03;;;4.17;100.00
21129;BME280;10722;51.910;8.352;2023-01-30T05:15:50;100488.59;;;4.22;100.00
21129;BME280;10722;51.910;8.352;2023-01-30T05:18:35;100508.44;;;4.28;100.00
21129;BME280;10722;51.910;8.352;2023-01-30T05:21:23;100494.81;;;4.29;100.00
21129;BME280;10722;51.910;8.352;2023-01-30T05:24:08;100488.13;;;4.33;100.00
21129;BME280;10722;51.910;8.352;2023-01-30T05:26:53;100483.94;;;4.35;100.00
21129;BME280;10722;51.910;8.352;2023-01-30T05:29:41;100488.31;;;4.37;100.00
21129;BME280;10722;51.910;8.352;2023-01-30T05:32:36;100481.50;;;4.38;100.00
21129;BME280;10722;51.910;8.352;2023-01-30T05:35:28;100475.50;;;4.37;100.00
21129;BME280;10722;51.910;8.352;2023-01-30T05:38:14;100482.47;;;4.41;100.00
21129;BME280;10722;51.910;8.352;2023-01-30T05:41:02;100488.34;;;4.39;100.00
21129;BME280;10722;51.910;8.352;2023-01-30T05:43:48;100498.84;;;4.45;100.00
21129;BME280;10722;51.910;8.352;2023-01-30T05:46:34;100495.34;;;4.43;100.00
21129;BME280;10722;51.910;8.352;2023-01-30T05:49:19;100525.34;;;4.45;100.00
21129;BME280;10722;51.910;8.352;2023-01-30T05:52:04;100522.03;;;4.48;100.00
21129;BME280;10722;51.910;8.352;2023-01-30T05:54:49;100508.63;;;4.55;100.00
21129;BME280;10722;51.910;8.352;2023-01-30T05:57:35;100510.50;;;4.59;100.00
21129;BME280;10722;51.910;8.352;2023-01-30T06:00:20;100508.81;;;4.60;100.00
21129;BME280;10722;51.910;8.352;2023-01-30T06:03:06;100506.34;;;4.63;100.00
21129;BME280;10722;51.910;8.352;2023-01-30T06:05:50;100501.28;;;4.64;100.00
21129;BME280;10722;51.910;8.352;2023-01-30T06:08:36;100526.22;;;4.68;100.00
21129;BME280;10722;51.910;8.352;2023-01-30T06:11:22;100520.25;;;4.69;100.00
21129;BME280;10722;51.910;8.352;2023-01-30T06:14:22;100516.16;;;4.73;100.00
21129;BME280;10722;51.910;8.352;2023-01-30T06:17:26;100516.25;;;4.76;100.00
21129;BME280;10722;51.910;8.352;2023-01-30T06:20:13;100507.44;;;4.69;100.00
21129;BME280;10722;51.910;8.352;2023-01-30T06:22:59;100497.31;;;4.72;100.00
21129;BME280;10722;51.910;8.352;2023-01-30T06:25:53;100503.16;;;4.68;100.00
21129;BME280;10722;51.910;8.352;2023-01-30T06:28:47;100504.88;;;4.69;100.00
21129;BME280;10722;51.910;8.352;2023-01-30T06:31:32;100515.84;;;4.65;100.00
21129;BME280;10722;51.910;8.352;2023-01-30T06:34:18;100524.59;;;4.70;100.00
21129;BME280;10722;51.910;8.352;2023-01-30T06:37:03;100514.38;;;4.72;100.00
21129;BME280;10722;51.910;8.352;2023-01-30T06:39:47;100507.69;;;4.76;100.00
21129;BME280;10722;51.910;8.352;2023-01-30T06:42:33;100509.44;;;4.77;100.00
21129;BME280;10722;51.910;8.352;2023-01-30T06:45:18;100510.38;;;4.79;100.00
21129;BME280;10722;51.910;8.352;2023-01-30T06:48:04;100514.56;;;4.77;100.00
21129;BME280;10722;51.910;8.352;2023-01-30T06:50:49;100506.81;;;4.75;100.00
21129;BME280;10722;51.910;8.352;2023-01-30T06:53:34;100518.81;;;4.76;100.00
21129;BME280;10722;51.910;8.352;2023-01-30T06:56:19;100518.97;;;4.81;100.00
21129;BME280;10722;51.910;8.352;2023-01-30T06:59:04;100514.59;;;4.78;100.00
21129;BME280;10722;51.910;8.352;2023-01-30T07:01:50;100518.19;;;4.82;100.00
21129;BME280;10722;51.910;8.352;2023-01-30T07:04:35;100512.03;;;4.78;100.00
21129;BME280;10722;51.910;8.352;2023-01-30T07:07:21;100504.44;;;4.80;100.00
21129;BME280;10722;51.910;8.352;2023-01-30T07:10:07;100520.56;;;4.77;100.00
21129;BME280;10722;51.910;8.352;2023-01-30T07:12:53;100508.50;;;4.75;100.00
21129;BME280;10722;51.910;8.352;2023-01-30T07:15:38;100510.31;;;4.77;100.00
21129;BME280;10722;51.910;8.352;2023-01-30T07:18:23;100513.81;;;4.79;100.00
21129;BME280;10722;51.910;8.352;2023-01-30T07:21:08;100500.06;;;4.77;100.00
21129;BME280;10722;51.910;8.352;2023-01-30T07:23:54;100511.91;;;4.74;100.00
21129;BME280;10722;51.910;8.352;2023-01-30T07:26:39;100511.91;;;4.74;100.00
21129;BME280;10722;51.910;8.352;2023-01-30T07:29:24;100500.63;;;4.70;100.00
21129;BME280;10722;51.910;8.352;2023-01-30T07:32:15;100491.09;;;4.66;100.00
21129;BME280;10722;51.910;8.352;2023-01-30T07:35:00;100498.06;;;4.70;100.00
21129;BME280;10722;51.910;8.352;2023-01-30T07:37:49;100502.28;;;4.68;100.00
21129;BME280;10722;51.910;8.352;2023-01-30T07:40:35;100503.44;;;4.54;100.00
21129;BME280;10722;51.910;8.352;2023-01-30T07:43:20;100494.13;;;4.56;100.00
21129;BME280;10722;51.910;8.352;2023-01-30T07:46:05;100509.59;;;4.59;100.00
21129;BME280;10722;51.910;8.352;2023-01-30T07:48:51;100511.03;;;4.51;100.00
21129;BME280;10722;51.910;8.352;2023-01-30T07:51:36;100516.00;;;4.47;100.00
21129;BME280;10722;51.910;8.352;2023-01-30T07:54:21;100523.41;;;4.40;100.00
21129;BME280;10722;51.910;8.352;2023-01-30T07:57:06;100526.84;;;4.40;100.00
21129;BME280;10722;51.910;8.352;2023-01-30T07:59:52;100529.41;;;4.40;100.00
21129;BME280;10722;51.910;8.352;2023-01-30T08:02:37;100529.44;;;4.42;100.00
21129;BME280;10722;51.910;8.352;2023-01-30T08:05:23;100529.41;;;4.40;100.00
21129;BME280;10722;51.910;8.352;2023-01-30T08:08:08;100521.00;;;4.44;100.00
21129;BME280;10722;51.910;8.352;2023-01-30T08:10:53;100528.25;;;4.55;100.00
21129;BME280;10722;51.910;8.352;2023-01-30T08:13:39;100526.78;;;4.61;100.00
21129;BME280;10722;51.910;8.352;2023-01-30T08:16:24;100516.00;;;4.70;100.00
21129;BME280;10722;51.910;8.352;2023-01-30T08:19:09;100523.25;;;4.80;100.00
21129;BME280;10722;51.910;8.352;2023-01-30T08:21:54;100526.13;;;4.89;100.00
21129;BME280;10722;51.910;8.352;2023-01-30T08:24:40;100514.59;;;5.01;100.00
21129;BME280;10722;51.910;8.352;2023-01-30T08:27:25;100496.88;;;5.07;100.00
21129;BME280;10722;51.910;8.352;2023-01-30T08:30:11;100493.59;;;5.11;100.00
21129;BME280;10722;51.910;8.352;2023-01-30T08:32:57;100480.88;;;5.14;100.00
21129;BME280;10722;51.910;8.352;2023-01-30T08:35:42;100482.75;;;5.18;100.00
21129;BME280;10722;51.910;8.352;2023-01-30T08:38:28;100489.63;;;5.19;100.00
21129;BME280;10722;51.910;8.352;2023-01-30T08:41:13;100494.78;;;5.21;100.00
21129;BME280;10722;51.910;8.352;2023-01-30T08:43:58;100494.97;;;5.25;100.00
21129;BME280;10722;51.910;8.352;2023-01-30T08:46:44;100502.06;;;5.32;100.00
21129;BME280;10722;51.910;8.352;2023-01-30T08:49:29;100484.41;;;5.42;100.00
21129;BME280;10722;51.910;8.352;2023-01-30T08:52:15;100491.19;;;5.39;100.00
21129;BME280;10722;51.910;8.352;2023-01-30T08:54:59;100481.75;;;5.38;100.00
21129;BME280;10722;51.910;8.352;2023-01-30T08:57:47;100479.19;;;5.38;100.00
21129;BME280;10722;51.910;8.352;2023-01-30T09:00:33;100484.56;;;5.46;100.00
21129;BME280;10722;51.910;8.352;2023-01-30T09:03:18;100469.41;;;5.52;100.00
21129;BME280;10722;51.910;8.352;2023-01-30T09:06:04;100463.34;;;5.52;100.00
21129;BME280;10722;51.910;8.352;2023-01-30T09:08:49;100460.88;;;5.53;100.00
21129;BME280;10722;51.910;8.352;2023-01-30T09:11:34;100449.72;;;5.53;100.00
21129;BME280;10722;51.910;8.352;2023-01-30T09:14:19;100442.03;;;5.53;100.00
21129;BME280;10722;51.910;8.352;2023-01-30T09:17:05;100435.28;;;5.55;100.00
21129;BME280;10722;51.910;8.352;2023-01-30T09:19:50;100433.38;;;5.49;100.00
21129;BME280;10722;51.910;8.352;2023-01-30T09:22:35;100437.69;;;5.52;100.00
21129;BME280;10722;51.910;8.352;2023-01-30T09:25:21;100432.47;;;5.49;100.00
21129;BME280;10722;51.910;8.352;2023-01-30T09:28:06;100436.81;;;5.50;100.00
21129;BME280;10722;51.910;8.352;2023-01-30T09:30:52;100439.56;;;5.56;100.00
21129;BME280;10722;51.910;8.352;2023-01-30T09:33:38;100433.59;;;5.57;100.00
21129;BME280;10722;51.910;8.352;2023-01-30T09:36:23;100443.84;;;5.55;100.00
21129;BME280;10722;51.910;8.352;2023-01-30T09:39:08;100435.31;;;5.56;100.00
21129;BME280;10722;51.910;8.352;2023-01-30T09:48:30;100443.34;;;5.67;100.00
21129;BME280;10722;51.910;8.352;2023-01-30T09:51:42;100437.25;;;5.64;100.00
21129;BME280;10722;51.910;8.352;2023-01-30T09:54:34;100449.16;;;5.61;100.00
21129;BME280;10722;51.910;8.352;2023-01-30T09:57:22;100439.66;;;5.59;100.00
21129;BME280;10722;51.910;8.352;2023-01-30T10:00:33;100411.53;;;5.62;100.00
21129;BME280;10722;51.910;8.352;2023-01-30T10:03:34;100408.13;;;5.63;99.81
21129;BME280;10722;51.910;8.352;2023-01-30T10:06:22;100422.63;;;5.61;99.42
21129;BME280;10722;51.910;8.352;2023-01-30T10:09:20;100400.78;;;5.74;98.82
21129;BME280;10722;51.910;8.352;2023-01-30T10:15:30;100383.91;;;5.80;97.38
21129;BME280;10722;51.910;8.352;2023-01-30T10:22:01;100382.28;;;5.84;96.30
21129;BME280;10722;51.910;8.352;2023-01-30T10:28:02;100364.25;;;5.82;95.42
21129;BME280;10722;51.910;8.352;2023-01-30T10:30:52;100369.38;;;5.82;95.34
21129;BME280;10722;51.910;8.352;2023-01-30T10:33:43;100391.91;;;5.91;95.46
21129;BME280;10722;51.910;8.352;2023-01-30T10:48:58;100348.78;;;6.08;92.84
21129;BME280;10722;51.910;8.352;2023-01-30T10:52:00;100345.59;;;6.15;92.49
21129;BME280;10722;51.910;8.352;2023-01-30T10:58:10;100353.13;;;6.09;91.77
21129;BME280;10722;51.910;8.352;2023-01-30T11:07:15;100344.47;;;6.05;91.13
21129;BME280;10722;51.910;8.352;2023-01-30T11:10:00;100346.44;;;6.14;90.98
21129;BME280;10722;51.910;8.352;2023-01-30T11:12:45;100324.91;;;6.11;90.08
21129;BME280;10722;51.910;8.352;2023-01-30T11:15:41;100324.09;;;6.12;90.06
21129;BME280;10722;51.910;8.352;2023-01-30T11:18:28;100321.72;;;6.19;89.66
21129;BME280;10722;51.910;8.352;2023-01-30T11:21:33;100324.22;;;6.16;90.19
21129;BME280;10722;51.910;8.352;2023-01-30T11:24:39;100343.81;;;6.13;90.23
21129;BME280;10722;51.910;8.352;2023-01-30T11:27:28;100342.09;;;6.13;90.50
21129;BME280;10722;51.910;8.352;2023-01-30T11:30:15;100344.47;;;6.05;90.34
21129;BME280;10722;51.910;8.352;2023-01-30T11:33:12;100317.09;;;6.06;89.81
21129;BME280;10722;51.910;8.352;2023-01-30T11:36:05;100346.97;;;6.04;90.42
21129;BME280;10722;51.910;8.352;2023-01-30T11:38:57;100353.03;;;6.06;90.77
21129;BME280;10722;51.910;8.352;2023-01-30T11:41:55;100371.09;;;6.09;90.96
21129;BME280;10722;51.910;8.352;2023-01-30T11:44:41;100352.19;;;6.07;90.55
21129;BME280;10722;51.910;8.352;2023-01-30T11:47:27;100369.53;;;6.44;90.57
21129;BME280;10722;51.910;8.352;2023-01-30T11:50:16;100340.63;;;6.51;89.69
21129;BME280;10722;51.910;8.352;2023-01-30T11:53:23;100337.97;;;6.79;89.07
21129;BME280;10722;51.910;8.352;2023-01-30T11:56:18;100313.06;;;6.46;88.77
21129;BME280;10722;51.910;8.352;2023-01-30T12:05:04;100334.47;;;6.45;88.87
21129;BME280;10722;51.910;8.352;2023-01-30T12:07:51;100317.44;;;6.50;88.69
21129;BME280;10722;51.910;8.352;2023-01-30T12:10:40;100321.03;;;6.55;88.05
21129;BME280;10722;51.910;8.352;2023-01-30T12:13:37;100297.09;;;6.58;87.40
21129;BME280;10722;51.910;8.352;2023-01-30T12:22:30;100283.97;;;6.79;86.35
21129;BME280;10722;51.910;8.352;2023-01-30T12:25:32;100271.25;;;6.85;85.48
21129;BME280;10722;51.910;8.352;2023-01-30T12:28:33;100246.94;;;7.45;84.67
21129;BME280;10722;51.910;8.352;2023-01-30T12:34:11;100172.59;;;7.58;81.15
21129;BME280;10722;51.910;8.352;2023-01-30T12:43:15;100169.78;;;7.46;80.53
21129;BME280;10722;51.910;8.352;2023-01-30T12:52:20;100264.00;;;6.70;83.78
21129;BME280;10722;51.910;8.352;2023-01-30T12:55:35;100303.47;;;6.72;84.27
21129;BME280;10722;51.910;8.352;2023-01-30T13:04:39;100320.56;;;6.70;84.57
21129;BME280;10722;51.910;8.352;2023-01-30T13:07:53;100336.28;;;6.81;84.78
21129;BME280;10722;51.910;8.352;2023-01-30T13:26:07;100460.75;;;6.57;88.36
21129;BME280;10722;51.910;8.352;2023-01-30T13:29:00;100459.03;;;6.58;88.81
21129;BME280;10722;51.910;8.352;2023-01-30T13:31:54;100474.59;;;6.62;88.84
21129;BME280;10722;51.910;8.352;2023-01-30T13:34:42;100484.72;;;6.56;89.43
21129;BME280;10722;51.910;8.352;2023-01-30T13:37:30;100518.06;;;6.27;90.70
21129;BME280;10722;51.910;8.352;2023-01-30T13:40:24;100563.00;;;6.13;92.71
21129;BME280;10722;51.910;8.352;2023-01-30T13:43:21;100578.19;;;5.81;93.96
21129;BME280;10722;51.910;8.352;2023-01-30T13:46:09;100587.59;;;5.82;95.36
21129;BME280;10722;51.910;8.352;2023-01-30T13:49:55;100610.22;;;5.69;96.34
21129;BME280;10722;51.910;8.352;2023-01-30T14:04:56;100621.91;;;5.12;95.60
21129;BME280;10722;51.910;8.352;2023-01-30T14:07:42;100614.66;;;5.02;95.45
21129;BME280;10722;51.910;8.352;2023-01-30T14:10:32;100592.97;;;4.94;94.71
21129;BME280;10722;51.910;8.352;2023-01-30T14:13:18;100596.03;;;5.30;93.71
21129;BME280;10722;51.910;8.352;2023-01-30T14:16:04;100595.41;;;6.35;92.31
21129;BME280;10722;51.910;8.352;2023-01-30T14:18:50;100558.84;;;7.00;88.57
21129;BME280;10722;51.910;8.352;2023-01-30T14:21:35;100492.47;;;7.50;85.54
21129;BME280;10722;51.910;8.352;2023-01-30T14:24:21;100425.13;;;7.68;82.35
21129;BME280;10722;51.910;8.352;2023-01-30T14:27:25;100342.28;;;7.13;79.60
21129;BME280;10722;51.910;8.352;2023-01-30T14:30:35;100371.41;;;6.80;80.13
21129;BME280;10722;51.910;8.352;2023-01-30T14:39:38;100502.88;;;6.06;83.36
21129;BME280;10722;51.910;8.352;2023-01-30T14:42:26;100537.34;;;6.69;84.00
21129;BME280;10722;51.910;8.352;2023-01-30T14:45:14;100540.84;;;7.31;83.84
21129;BME280;10722;51.910;8.352;2023-01-30T14:48:27;100520.59;;;7.12;82.86
21129;BME280;10722;51.910;8.352;2023-01-30T14:57:16;100626.19;;;6.08;87.22
21129;BME280;10722;51.910;8.352;2023-01-30T15:00:14;100645.97;;;5.87;89.21
21129;BME280;10722;51.910;8.352;2023-01-30T15:03:08;100677.88;;;5.69;91.10
21129;BME280;10722;51.910;8.352;2023-01-30T15:06:00;100717.53;;;6.00;91.91
21129;BME280;10722;51.910;8.352;2023-01-30T15:08:46;100725.16;;;5.98;91.99
21129;BME280;10722;51.910;8.352;2023-01-30T15:11:33;100741.31;;;5.73;92.89
21129;BME280;10722;51.910;8.352;2023-01-30T15:14:27;100751.69;;;5.76;94.24
21129;BME280;10722;51.910;8.352;2023-01-30T15:20:19;100793.00;;;5.60;95.92
21129;BME280;10722;51.910;8.352;2023-01-30T15:32:23;100811.16;;;5.65;97.45
21129;BME280;10722;51.910;8.352;2023-01-30T15:38:00;100800.13;;;5.67;96.31
21129;BME280;10722;51.910;8.352;2023-01-30T15:40:45;100820.78;;;5.70;96.34
21129;BME280;10722;51.910;8.352;2023-01-30T15:43:43;100817.56;;;5.76;96.03
21129;BME280;10722;51.910;8.352;2023-01-30T15:49:34;100822.06;;;5.81;95.42
21129;BME280;10722;51.910;8.352;2023-01-30T15:52:37;100815.09;;;5.77;95.16
21129;BME280;10722;51.910;8.352;2023-01-30T15:55:29;100828.78;;;5.78;95.17
21129;BME280;10722;51.910;8.352;2023-01-30T15:58:17;100825.34;;;5.77;94.83
21129;BME280;10722;51.910;8.352;2023-01-30T16:01:04;100837.19;;;5.74;94.95
21129;BME280;10722;51.910;8.352;2023-01-30T16:03:51;100842.16;;;5.69;94.85
21129;BME280;10722;51.910;8.352;2023-01-30T16:06:36;100841.66;;;5.57;94.65
21129;BME280;10722;51.910;8.352;2023-01-30T16:09:23;100865.00;;;5.63;95.01
21129;BME280;10722;51.910;8.352;2023-01-30T16:12:25;100864.50;;;5.51;95.49
21129;BME280;10722;51.910;8.352;2023-01-30T16:15:31;100882.09;;;5.62;95.70
21129;BME280;10722;51.910;8.352;2023-01-30T16:18:35;100892.44;;;5.64;95.57
21129;BME280;10722;51.910;8.352;2023-01-30T16:21:25;100896.81;;;5.67;95.83
21129;BME280;10722;51.910;8.352;2023-01-30T16:24:22;100901.69;;;5.60;96.01
21129;BME280;10722;51.910;8.352;2023-01-30T16:27:36;100910.28;;;5.61;96.21
21129;BME280;10722;51.910;8.352;2023-01-30T16:30:26;100913.75;;;5.63;96.31
21129;BME280;10722;51.910;8.352;2023-01-30T16:33:15;100921.16;;;5.55;96.38
21129;BME280;10722;51.910;8.352;2023-01-30T16:39:31;100943.50;;;5.58;96.58
21129;BME280;10722;51.910;8.352;2023-01-30T16:51:21;100948.59;;;5.77;96.13
21129;BME280;10722;51.910;8.352;2023-01-30T16:54:18;100950.09;;;5.72;95.96
21129;BME280;10722;51.910;8.352;2023-01-30T16:57:04;100952.06;;;5.79;95.65
21129;BME280;10722;51.910;8.352;2023-01-30T16:59:50;100959.38;;;5.91;95.55
21129;BME280;10722;51.910;8.352;2023-01-30T17:02:39;100949.81;;;5.87;94.85
21129;BME280;10722;51.910;8.352;2023-01-30T17:05:28;100947.06;;;5.82;94.61
21129;BME280;10722;51.910;8.352;2023-01-30T17:14:22;100959.84;;;5.81;93.62
21129;BME280;10722;51.910;8.352;2023-01-30T17:17:12;100956.28;;;5.77;93.54
21129;BME280;10722;51.910;8.352;2023-01-30T17:19:58;100952.06;;;5.79;92.81
21129;BME280;10722;51.910;8.352;2023-01-30T17:22:45;100951.44;;;5.85;92.90
21129;BME280;10722;51.910;8.352;2023-01-30T17:25:34;100948.81;;;5.83;92.30
21129;BME280;10722;51.910;8.352;2023-01-30T17:28:20;100945.66;;;5.91;92.22
21129;BME280;10722;51.910;8.352;2023-01-30T17:31:13;100946.38;;;5.87;91.79
21129;BME280;10722;51.910;8.352;2023-01-30T17:33:59;100944.56;;;5.84;91.68
21129;BME280;10722;51.910;8.352;2023-01-30T17:36:45;100950.00;;;5.92;91.47
21129;BME280;10722;51.910;8.352;2023-01-30T17:39:31;100954.22;;;5.90;91.77
21129;BME280;10722;51.910;8.352;2023-01-30T17:42:16;100966.59;;;5.79;91.46
21129;BME280;10722;51.910;8.352;2023-01-30T17:45:01;100976.00;;;5.78;91.63